Impacts TAF Board
For situational awareness. Not to be used for flight planning purposes.
IDs:

KGKY - Arlington Muni, TX, US

Issued at 1130 UTC 13 Dec 2019
Updated at 1402 UTC 13 Dec 2019
Potential Impact None Slight Moderate High
Time1353Z 13/15Z 13/16Z 13/17Z 13/18Z 13/19Z 13/20Z 13/21Z 13/22Z 13/23Z 14/00Z 14/01Z 14/02Z 14/03Z>>
Type OBS PRVL PRVL PRVL PRVL PRVL PRVL PRVL PRVL PRVL PRVL PRVL PRVL PRVL
VIS 10 >6 >6 >6 >6 >6 >6 >6 >6 >6 >6 >6 >6 >6
CIG -- -- -- -- -- -- -- -- -- -- -- -- -- --
Cover CLR SKC SKC FEW FEW FEW FEW FEW FEW FEW FEW FEW FEW FEW
FltCat VFR VFR VFR VFR VFR VFR VFR VFR VFR VFR VFR VFR VFR VFR
WX -- -- -- -- -- -- -- -- -- -- -- -- -- --
WDir VRB 170 170 320 320 320 320 320 320 320 320 320 320 320
WSpd 0 5 5 7 7 7 7 7 7 7 7 7 7 7
WGst -- -- -- -- -- -- -- -- -- -- -- -- -- --
Raw TAF
KGKY 131130Z 1312/1412 17005KT P6SM SKC
  TEMPO 1312/1314 4SM BR
  FM131700 32007KT P6SM FEW250


Raw METAR
KGKY 131353Z 00000KT 10SM CLR 06/04 A2990 RMK AO2 SLP123 T00610039 $
KGKY 131253Z 19004KT 10SM CLR 07/04 A2990 RMK AO2 SLP122 T00670044 $
KGKY 131153Z AUTO 17005KT 10SM CLR 07/04 A2989 RMK AO2 SLP120 T00670044 10089 20039 58012 $

METAR Board
Radar Display
Forecast Discussion
For situational awareness. Not to be used for flight planning purposes.